createdAt,value
2019-03-17T00:00:28.506Z,89.15
2019-03-17T00:01:28.492Z,88.74
2019-03-17T00:02:28.490Z,89.04
2019-03-17T00:03:28.504Z,89.66
2019-03-17T00:04:31.806Z,89.04
2019-03-17T00:05:28.451Z,88.74
2019-03-17T00:06:28.440Z,89.25
2019-03-17T00:07:28.433Z,88.74
2019-03-17T00:08:28.442Z,88.43
2019-03-17T00:09:28.416Z,88.53
2019-03-17T00:10:28.403Z,89.15
2019-03-17T00:11:28.467Z,88.95
2019-03-17T00:12:31.306Z,87.51
2019-03-17T00:13:28.380Z,87.30
2019-03-17T00:14:28.357Z,86.79
2019-03-17T00:15:28.359Z,86.99
2019-03-17T00:16:28.332Z,87.61
2019-03-17T00:17:28.327Z,87.71
2019-03-17T00:18:28.328Z,86.68
2019-03-17T00:19:28.303Z,86.27
2019-03-17T00:20:28.297Z,86.48
2019-03-17T00:21:28.279Z,85.76
2019-03-17T00:22:28.281Z,85.66
2019-03-17T00:23:28.273Z,85.62
2019-03-17T00:24:28.251Z,85.76
2019-03-17T00:25:28.243Z,86.17
2019-03-17T00:26:28.221Z,85.04
2019-03-17T00:27:28.213Z,85.66
2019-03-17T00:28:28.231Z,85.14
2019-03-17T00:29:28.194Z,85.76
2019-03-17T00:30:28.177Z,85.76
2019-03-17T00:31:28.172Z,86.89
2019-03-17T00:32:28.273Z,84.94
2019-03-17T00:33:28.171Z,84.84
2019-03-17T00:34:28.139Z,84.53
2019-03-17T00:35:28.177Z,84.63
2019-03-17T00:36:28.119Z,84.94
2019-03-17T00:37:28.109Z,84.84
2019-03-17T00:38:28.127Z,84.94
2019-03-17T00:39:28.081Z,84.74
2019-03-17T00:40:28.086Z,84.84
2019-03-17T00:41:28.074Z,83.70
2019-03-17T00:42:28.051Z,84.53
2019-03-17T00:43:28.074Z,84.42
2019-03-17T00:44:28.027Z,83.91
2019-03-17T00:45:28.023Z,84.42
2019-03-17T00:46:28.018Z,85.35
2019-03-17T00:47:28.007Z,84.12
2019-03-17T00:48:28.001Z,84.12
2019-03-17T00:49:27.994Z,84.84
2019-03-17T00:50:27.964Z,83.91
2019-03-17T00:51:27.953Z,84.63
2019-03-17T00:52:27.942Z,83.70
2019-03-17T00:53:27.931Z,82.37
2019-03-17T00:54:27.958Z,83.50
2019-03-17T00:55:27.916Z,83.09
2019-03-17T00:56:27.904Z,83.50
2019-03-17T00:57:27.900Z,82.78
2019-03-17T00:58:27.874Z,83.26
2019-03-17T00:59:27.881Z,82.68
2019-03-17T01:00:27.893Z,82.23
2019-03-17T01:01:27.840Z,81.62
2019-03-17T01:02:27.830Z,81.55
2019-03-17T01:03:27.828Z,81.41
2019-03-17T01:04:27.822Z,81.41
2019-03-17T01:05:27.796Z,81.00
2019-03-17T01:06:27.793Z,82.33
2019-03-17T01:07:27.792Z,81.10
2019-03-17T01:08:27.770Z,81.82
2019-03-17T01:09:27.782Z,81.20
2019-03-17T01:10:27.740Z,81.92
2019-03-17T01:11:27.736Z,81.41
2019-03-17T01:12:27.725Z,81.41
2019-03-17T01:13:27.737Z,82.17
2019-03-17T01:14:27.734Z,83.56
2019-03-17T01:15:27.693Z,82.84
2019-03-17T01:16:27.679Z,82.23
2019-03-17T01:17:27.669Z,82.43
2019-03-17T01:18:27.655Z,81.96
2019-03-17T01:19:27.667Z,81.10
2019-03-17T01:20:27.657Z,81.41
2019-03-17T01:21:27.625Z,81.51
2019-03-17T01:22:27.617Z,81.92
2019-03-17T01:23:27.603Z,81.82
2019-03-17T01:24:27.614Z,81.41
2019-03-17T01:25:27.582Z,81.20
2019-03-17T01:26:27.571Z,81.65
2019-03-17T01:27:27.569Z,81.45
2019-03-17T01:28:27.546Z,81.96
2019-03-17T01:29:27.568Z,81.55
2019-03-17T01:30:27.529Z,80.38
2019-03-17T01:31:27.517Z,79.87
2019-03-17T01:32:27.507Z,81.20
2019-03-17T01:33:27.515Z,81.00
2019-03-17T01:34:27.483Z,80.28
2019-03-17T01:35:27.487Z,80.38
2019-03-17T01:36:27.468Z,80.49
2019-03-17T01:37:27.466Z,79.97
2019-03-17T01:38:27.439Z,80.07
2019-03-17T01:39:27.455Z,80.38
2019-03-17T01:40:27.431Z,79.56
2019-03-17T01:41:27.409Z,80.38
2019-03-17T01:42:27.395Z,79.46
2019-03-17T01:43:27.387Z,79.56
2019-03-17T01:44:27.377Z,77.92
2019-03-17T01:45:27.453Z,79.46
2019-03-17T01:46:27.353Z,78.43
2019-03-17T01:47:27.852Z,78.74
2019-03-17T01:48:27.334Z,78.43
2019-03-17T01:49:27.321Z,77.58
2019-03-17T01:50:27.331Z,78.43
2019-03-17T01:51:27.304Z,79.11
2019-03-17T01:52:27.289Z,78.09
2019-03-17T01:53:27.274Z,79.36
2019-03-17T01:54:27.267Z,78.43
2019-03-17T01:55:27.277Z,77.61
2019-03-17T01:56:27.249Z,77.81
2019-03-17T01:57:27.240Z,78.02
2019-03-17T01:58:27.220Z,77.51
2019-03-17T01:59:27.211Z,78.09
2019-03-17T02:00:27.215Z,78.94
2019-03-17T02:01:27.207Z,77.71
2019-03-17T02:02:27.194Z,77.61
2019-03-17T02:03:27.178Z,77.58
2019-03-17T02:04:27.176Z,77.51
2019-03-17T02:05:27.162Z,77.81
2019-03-17T02:06:27.141Z,77.71
2019-03-17T02:07:27.125Z,78.12
2019-03-17T02:08:27.116Z,76.96
2019-03-17T02:09:27.108Z,77.40
2019-03-17T02:10:27.117Z,77.51
2019-03-17T02:11:27.084Z,77.20
2019-03-17T02:12:27.071Z,77.71
2019-03-17T02:13:27.081Z,77.00
2019-03-17T02:14:27.053Z,77.51
2019-03-17T02:15:27.053Z,77.00
2019-03-17T02:16:27.048Z,76.68
2019-03-17T02:17:27.019Z,77.00
2019-03-17T02:18:27.008Z,76.79
2019-03-17T02:19:27.000Z,76.89
2019-03-17T02:20:27.022Z,76.89
2019-03-17T02:21:26.977Z,76.58
2019-03-17T02:22:26.976Z,76.68
2019-03-17T02:23:26.958Z,76.34
2019-03-17T02:24:26.943Z,76.79
2019-03-17T02:25:26.934Z,76.68
2019-03-17T02:26:26.937Z,77.40
2019-03-17T02:27:26.910Z,76.89
2019-03-17T02:28:26.904Z,76.79
2019-03-17T02:29:26.887Z,77.00
2019-03-17T02:30:26.889Z,76.07
2019-03-17T02:31:26.880Z,76.07
2019-03-17T02:32:26.855Z,75.62
2019-03-17T02:33:26.845Z,75.62
2019-03-17T02:34:26.836Z,75.62
2019-03-17T02:35:38.900Z,75.83
2019-03-17T02:36:28.007Z,75.76
2019-03-17T02:37:26.802Z,75.97
2019-03-17T02:38:26.812Z,76.17
2019-03-17T02:39:26.796Z,75.76
2019-03-17T02:40:26.770Z,75.42
2019-03-17T02:41:26.771Z,75.15
2019-03-17T02:42:26.760Z,75.76
2019-03-17T02:43:26.752Z,75.87
2019-03-17T02:44:26.728Z,76.14
2019-03-17T02:45:26.710Z,75.42
2019-03-17T02:46:26.719Z,75.35
2019-03-17T02:47:26.691Z,75.73
2019-03-17T02:48:26.706Z,75.76
2019-03-17T02:49:26.670Z,74.80
2019-03-17T02:50:26.664Z,75.11
2019-03-17T02:51:26.664Z,75.32
2019-03-17T02:52:26.637Z,75.32
2019-03-17T02:53:26.628Z,75.45
2019-03-17T02:54:26.625Z,74.94
2019-03-17T02:55:26.633Z,75.52
2019-03-17T02:56:26.611Z,74.94
2019-03-17T02:57:26.586Z,74.80
2019-03-17T02:58:26.572Z,74.60
2019-03-17T02:59:26.562Z,74.60
2019-03-17T03:00:26.563Z,75.11
2019-03-17T03:01:26.575Z,74.63
2019-03-17T03:02:26.559Z,74.94
2019-03-17T03:03:26.518Z,74.29
2019-03-17T03:04:26.525Z,74.80
2019-03-17T03:05:26.500Z,74.94
2019-03-17T03:06:26.502Z,74.49
2019-03-17T03:07:26.477Z,74.63
2019-03-17T03:08:26.475Z,73.88
2019-03-17T03:09:26.467Z,73.68
2019-03-17T03:10:26.441Z,73.98
2019-03-17T03:11:26.451Z,74.40
2019-03-17T03:12:26.420Z,73.98
2019-03-17T03:13:26.417Z,73.88
2019-03-17T03:14:26.405Z,74.49
2019-03-17T03:15:26.405Z,74.12
2019-03-17T03:16:26.393Z,74.19
2019-03-17T03:17:26.390Z,75.11
2019-03-17T03:18:26.361Z,74.74
2019-03-17T03:19:26.344Z,74.29
2019-03-17T03:20:26.334Z,74.19
2019-03-17T03:21:26.365Z,74.12
2019-03-17T03:22:26.313Z,73.36
2019-03-17T03:23:26.307Z,73.88
2019-03-17T03:24:26.292Z,73.78
2019-03-17T03:25:26.279Z,73.68
2019-03-17T03:26:26.268Z,73.16
2019-03-17T03:27:26.275Z,73.27
2019-03-17T03:28:26.249Z,73.36
2019-03-17T03:29:27.435Z,73.98
2019-03-17T03:30:26.223Z,73.98
2019-03-17T03:31:26.226Z,73.91
2019-03-17T03:32:26.218Z,73.47
2019-03-17T03:33:26.199Z,73.78
2019-03-17T03:34:26.186Z,73.98
2019-03-17T03:35:26.172Z,72.99
2019-03-17T03:36:26.158Z,74.49
2019-03-17T03:37:26.192Z,73.81
2019-03-17T03:38:26.142Z,72.99
2019-03-17T03:39:26.139Z,73.91
2019-03-17T03:40:26.119Z,73.61
2019-03-17T03:41:26.115Z,74.02
2019-03-17T03:42:26.111Z,73.91
2019-03-17T03:43:26.101Z,74.53
2019-03-17T03:44:26.190Z,74.12
2019-03-17T03:45:26.078Z,73.30
2019-03-17T03:46:26.068Z,73.50
2019-03-17T03:47:26.077Z,73.36
2019-03-17T03:48:26.039Z,73.88
2019-03-17T03:49:26.020Z,74.22
2019-03-17T03:50:26.013Z,73.19
2019-03-17T03:51:25.998Z,73.98
2019-03-17T03:52:26.002Z,73.27
2019-03-17T03:53:25.989Z,73.30
2019-03-17T03:54:25.966Z,73.50
2019-03-17T03:55:25.961Z,73.10
2019-03-17T03:56:25.955Z,73.50
2019-03-17T03:57:26.009Z,74.12
2019-03-17T03:58:25.951Z,73.81
2019-03-17T03:59:25.965Z,73.81
2019-03-17T04:00:25.906Z,74.94
2019-03-17T04:01:25.918Z,73.81
2019-03-17T04:02:25.893Z,73.91
2019-03-17T04:03:25.864Z,73.91
2019-03-17T04:04:25.860Z,73.30
2019-03-17T04:05:25.862Z,73.30
2019-03-17T04:06:27.162Z,74.02
2019-03-17T04:07:25.840Z,73.88
2019-03-17T04:08:25.815Z,74.12
2019-03-17T04:09:25.804Z,73.10
2019-03-17T04:10:25.793Z,73.36
2019-03-17T04:11:25.787Z,73.30
2019-03-17T04:12:25.790Z,73.88
2019-03-17T04:13:25.758Z,73.27
2019-03-17T04:14:25.769Z,73.57
2019-03-17T04:15:25.734Z,72.99
2019-03-17T04:16:25.725Z,74.74
2019-03-17T04:17:25.746Z,73.50
2019-03-17T04:18:25.716Z,73.30
2019-03-17T04:19:25.691Z,74.32
2019-03-17T04:20:25.684Z,74.32
2019-03-17T04:21:25.675Z,73.81
2019-03-17T04:22:25.674Z,73.81
2019-03-17T04:23:25.649Z,74.84
2019-03-17T04:24:25.659Z,74.43
2019-03-17T04:25:25.633Z,74.02
2019-03-17T04:26:25.622Z,73.91
2019-03-17T04:27:25.625Z,74.02
2019-03-17T04:28:25.593Z,73.91
2019-03-17T04:29:25.646Z,73.91
2019-03-17T04:30:25.584Z,73.91
2019-03-17T04:31:25.563Z,74.12
2019-03-17T04:32:25.589Z,74.53
2019-03-17T04:33:25.547Z,73.95
2019-03-17T04:34:25.530Z,74.22
2019-03-17T04:35:25.522Z,74.32
2019-03-17T04:36:39.053Z,74.22
2019-03-17T04:37:26.537Z,74.22
2019-03-17T04:38:25.488Z,74.22
2019-03-17T04:39:25.504Z,74.12
2019-03-17T04:40:25.467Z,74.32
2019-03-17T04:41:25.453Z,74.22
2019-03-17T04:42:25.444Z,74.77
2019-03-17T04:43:25.455Z,74.94
2019-03-17T04:44:25.429Z,74.22
2019-03-17T04:45:25.521Z,74.15
2019-03-17T04:46:25.415Z,74.26
2019-03-17T04:47:25.391Z,73.91
2019-03-17T04:48:25.399Z,74.12
2019-03-17T04:49:25.391Z,74.12
2019-03-17T04:50:25.357Z,74.12
2019-03-17T04:51:25.349Z,74.32
2019-03-17T04:52:25.395Z,73.91
2019-03-17T04:53:25.345Z,73.91
2019-03-17T04:54:25.319Z,74.05
2019-03-17T04:55:25.300Z,74.26
2019-03-17T04:56:25.291Z,74.22
2019-03-17T04:57:25.288Z,74.15
2019-03-17T04:58:25.296Z,73.74
2019-03-17T04:59:25.295Z,74.32
2019-03-17T05:00:25.254Z,73.10
2019-03-17T05:01:25.255Z,73.30
2019-03-17T05:02:25.235Z,73.81
2019-03-17T05:03:25.235Z,74.02
2019-03-17T05:04:25.208Z,74.53
2019-03-17T05:05:25.206Z,74.02
2019-03-17T05:06:25.186Z,74.12
2019-03-17T05:07:25.172Z,73.85
2019-03-17T05:08:25.209Z,73.50
2019-03-17T05:09:25.152Z,73.71
2019-03-17T05:10:25.202Z,73.91
2019-03-17T05:11:25.134Z,73.91
2019-03-17T05:12:25.123Z,73.50
2019-03-17T05:13:25.148Z,73.50
2019-03-17T05:14:25.098Z,73.10
2019-03-17T05:15:25.092Z,73.81
2019-03-17T05:16:25.080Z,73.81
2019-03-17T05:17:25.067Z,73.23
2019-03-17T05:18:25.084Z,73.40
2019-03-17T05:19:25.070Z,73.40
2019-03-17T05:20:25.030Z,73.19
2019-03-17T05:21:25.026Z,73.40
2019-03-17T05:22:25.014Z,73.19
2019-03-17T05:23:25.028Z,74.12
2019-03-17T05:24:25.008Z,73.61
2019-03-17T05:25:24.987Z,73.50
2019-03-17T05:26:25.036Z,73.81
2019-03-17T05:27:24.958Z,73.40
2019-03-17T05:28:24.948Z,73.16
2019-03-17T05:29:24.957Z,74.02
2019-03-17T05:30:24.924Z,73.16
2019-03-17T05:31:24.914Z,73.16
2019-03-17T05:32:24.912Z,73.16
2019-03-17T05:33:24.895Z,73.50
2019-03-17T05:34:24.898Z,73.47
2019-03-17T05:35:24.871Z,73.57
2019-03-17T05:36:24.862Z,73.57
2019-03-17T05:37:24.856Z,73.06
2019-03-17T05:38:24.860Z,73.40
2019-03-17T05:39:24.843Z,73.16
2019-03-17T05:40:24.817Z,72.65
2019-03-17T05:41:24.812Z,72.75
2019-03-17T05:42:24.801Z,73.47
2019-03-17T05:43:24.785Z,73.27
2019-03-17T05:44:24.805Z,73.57
2019-03-17T05:45:24.779Z,72.96
2019-03-17T05:46:24.751Z,72.55
2019-03-17T05:47:24.743Z,72.65
2019-03-17T05:48:24.729Z,72.96
2019-03-17T05:49:24.743Z,72.75
2019-03-17T05:50:24.717Z,72.92
2019-03-17T05:51:24.705Z,72.75
2019-03-17T05:52:24.689Z,72.10
2019-03-17T05:53:24.679Z,72.72
2019-03-17T05:54:24.683Z,72.75
2019-03-17T05:55:24.657Z,72.31
2019-03-17T05:56:24.645Z,72.72
2019-03-17T05:57:24.643Z,72.72
2019-03-17T05:58:24.649Z,72.20
2019-03-17T05:59:24.632Z,72.51
2019-03-17T06:00:24.601Z,72.51
2019-03-17T06:01:24.589Z,72.72
2019-03-17T06:02:24.582Z,72.10
2019-03-17T06:03:24.571Z,72.41
2019-03-17T06:04:24.589Z,72.82
2019-03-17T06:05:24.549Z,72.72
2019-03-17T06:06:24.537Z,72.00
2019-03-17T06:07:24.532Z,72.51
2019-03-17T06:08:24.511Z,72.41
2019-03-17T06:09:24.517Z,72.20
2019-03-17T06:10:24.527Z,72.41
2019-03-17T06:11:24.483Z,72.51
2019-03-17T06:12:24.491Z,71.69
2019-03-17T06:13:24.458Z,71.69
2019-03-17T06:14:24.479Z,72.00
2019-03-17T06:15:24.439Z,70.84
2019-03-17T06:16:24.446Z,71.66
2019-03-17T06:17:24.428Z,71.04
2019-03-17T06:18:24.411Z,72.38
2019-03-17T06:19:24.394Z,71.15
2019-03-17T06:20:24.399Z,71.45
2019-03-17T06:21:24.378Z,71.56
2019-03-17T06:22:24.377Z,71.15
2019-03-17T06:23:24.352Z,70.53
2019-03-17T06:24:24.337Z,71.15
2019-03-17T06:25:24.347Z,71.04
2019-03-17T06:26:24.320Z,70.84
2019-03-17T06:27:24.306Z,70.73
2019-03-17T06:28:24.313Z,70.84
2019-03-17T06:29:24.284Z,70.19
2019-03-17T06:30:24.286Z,71.11
2019-03-17T06:31:24.262Z,71.52
2019-03-17T06:32:24.269Z,70.29
2019-03-17T06:33:24.240Z,70.60
2019-03-17T06:34:24.501Z,70.50
2019-03-17T06:35:24.235Z,70.40
2019-03-17T06:36:24.229Z,70.40
2019-03-17T06:37:31.119Z,70.09
2019-03-17T06:38:25.186Z,69.98
2019-03-17T06:39:24.186Z,70.60
2019-03-17T06:40:24.186Z,69.98
2019-03-17T06:41:24.154Z,70.29
2019-03-17T06:42:24.142Z,69.89
2019-03-17T06:43:24.130Z,70.87
2019-03-17T06:44:24.129Z,70.60
2019-03-17T06:45:24.151Z,70.81
2019-03-17T06:46:24.102Z,70.70
2019-03-17T06:47:24.086Z,69.98
2019-03-17T06:48:24.082Z,69.78
2019-03-17T06:49:24.066Z,70.40
2019-03-17T06:50:24.086Z,70.36
2019-03-17T06:51:24.071Z,70.36
2019-03-17T06:52:24.030Z,70.40
2019-03-17T06:53:24.028Z,69.27
2019-03-17T06:54:24.016Z,70.26
2019-03-17T06:55:24.020Z,69.54
2019-03-17T06:56:23.999Z,70.26
2019-03-17T06:57:23.995Z,70.06
2019-03-17T06:58:23.970Z,70.47
2019-03-17T06:59:23.960Z,69.95
2019-03-17T07:00:23.968Z,70.57
2019-03-17T07:01:23.936Z,69.95
2019-03-17T07:02:23.930Z,70.16
2019-03-17T07:03:23.965Z,69.82
2019-03-17T07:04:23.938Z,69.51
2019-03-17T07:05:23.917Z,70.03
2019-03-17T07:06:23.882Z,70.33
2019-03-17T07:07:23.892Z,69.82
2019-03-17T07:08:23.865Z,70.20
2019-03-17T07:09:23.861Z,68.87
2019-03-17T07:10:23.914Z,68.97
2019-03-17T07:11:23.839Z,68.46
2019-03-17T07:12:23.815Z,69.07
2019-03-17T07:13:23.810Z,69.04
2019-03-17T07:14:23.921Z,68.73
2019-03-17T07:15:23.801Z,68.87
2019-03-17T07:16:23.775Z,68.25
2019-03-17T07:17:23.770Z,69.58
2019-03-17T07:18:23.758Z,68.76
2019-03-17T07:19:23.768Z,69.27
2019-03-17T07:20:23.743Z,69.48
2019-03-17T07:21:23.736Z,68.87
2019-03-17T07:22:23.704Z,67.84
2019-03-17T07:23:23.696Z,68.35
2019-03-17T07:24:23.699Z,68.87
2019-03-17T07:25:23.690Z,69.48
2019-03-17T07:26:23.664Z,69.27
2019-03-17T07:27:23.651Z,68.76
2019-03-17T07:28:23.641Z,68.76
2019-03-17T07:29:23.641Z,68.35
2019-03-17T07:30:23.657Z,69.68
2019-03-17T07:31:23.613Z,69.58
2019-03-17T07:32:23.605Z,68.35
2019-03-17T07:33:23.593Z,69.07
2019-03-17T07:34:23.636Z,68.66
2019-03-17T07:35:23.587Z,68.12
2019-03-17T07:36:23.557Z,68.84
2019-03-17T07:37:23.603Z,68.49
2019-03-17T07:38:23.652Z,67.99
2019-03-17T07:39:23.521Z,66.70
2019-03-17T07:40:23.548Z,65.20
2019-03-17T07:41:23.570Z,65.64
2019-03-17T07:42:23.500Z,65.88
2019-03-17T07:43:23.559Z,66.31
2019-03-17T07:44:23.467Z,67.10
2019-03-17T07:45:23.456Z,65.37
2019-03-17T07:46:23.469Z,64.32
2019-03-17T07:47:23.440Z,63.56
2019-03-17T07:48:23.424Z,62.43
2019-03-17T07:49:23.436Z,62.04
2019-03-17T07:50:23.404Z,62.48
2019-03-17T07:51:23.409Z,62.58
2019-03-17T07:52:23.410Z,62.48
2019-03-17T07:53:23.367Z,62.55
2019-03-17T07:54:23.379Z,60.79
2019-03-17T07:55:23.349Z,61.01
2019-03-17T07:56:23.353Z,59.10
2019-03-17T07:57:23.378Z,57.12
2019-03-17T07:58:23.321Z,55.75
2019-03-17T07:59:23.315Z,54.99
2019-03-17T08:00:31.961Z,54.21
2019-03-17T08:01:24.314Z,53.90
2019-03-17T08:02:23.292Z,54.11
2019-03-17T08:03:23.261Z,53.80
2019-03-17T08:04:23.258Z,53.17
2019-03-17T08:05:23.251Z,53.32
2019-03-17T08:06:23.258Z,53.40
2019-03-17T08:07:23.224Z,51.20
2019-03-17T08:08:23.251Z,51.76
2019-03-17T08:09:23.198Z,50.00
2019-03-17T08:10:23.184Z,48.67
2019-03-17T08:11:23.234Z,47.26
2019-03-17T08:12:23.164Z,47.28
2019-03-17T08:13:23.153Z,47.97
2019-03-17T08:14:23.136Z,48.25
2019-03-17T08:15:23.132Z,46.61
2019-03-17T08:16:23.140Z,46.29
2019-03-17T08:17:23.104Z,45.71
2019-03-17T08:18:23.096Z,45.97
2019-03-17T08:19:23.085Z,45.31
2019-03-17T08:20:23.102Z,45.99
2019-03-17T08:21:23.100Z,45.65
2019-03-17T08:22:23.062Z,44.54
2019-03-17T08:23:23.140Z,45.37
2019-03-17T08:24:23.046Z,44.42
2019-03-17T08:25:23.024Z,44.52
2019-03-17T08:26:23.047Z,43.42
2019-03-17T08:27:23.004Z,45.04
2019-03-17T08:28:23.156Z,44.63
2019-03-17T08:29:22.983Z,45.87
2019-03-17T08:30:23.026Z,47.77
2019-03-17T08:31:23.052Z,48.32
2019-03-17T08:32:23.012Z,47.91
2019-03-17T08:33:22.944Z,49.49
2019-03-17T08:34:22.994Z,49.84
2019-03-17T08:35:22.936Z,51.20
2019-03-17T08:36:22.926Z,51.83
2019-03-17T08:37:22.899Z,52.54
2019-03-17T08:38:22.890Z,53.55
2019-03-17T08:39:22.865Z,52.94
2019-03-17T08:40:22.857Z,52.54
2019-03-17T08:41:22.947Z,53.05
2019-03-17T08:42:22.847Z,52.03
2019-03-17T08:43:22.855Z,53.47
2019-03-17T08:44:22.823Z,52.81
2019-03-17T08:45:22.803Z,53.78
2019-03-17T08:46:22.796Z,54.71
2019-03-17T08:47:22.799Z,54.61
2019-03-17T08:48:22.777Z,55.04
2019-03-17T08:49:22.815Z,54.94
2019-03-17T08:50:22.803Z,55.65
2019-03-17T08:51:22.842Z,55.68
2019-03-17T08:52:22.746Z,56.10
2019-03-17T08:53:22.723Z,55.22
2019-03-17T08:54:22.753Z,56.34
2019-03-17T08:55:22.695Z,58.06
2019-03-17T08:56:22.717Z,56.44
2019-03-17T08:57:22.701Z,56.64
2019-03-17T08:58:22.671Z,56.74
2019-03-17T08:59:22.665Z,56.03
2019-03-17T09:00:22.652Z,56.77
2019-03-17T09:01:22.631Z,56.46
2019-03-17T09:02:22.643Z,57.15
2019-03-17T09:03:22.730Z,56.26
2019-03-17T09:04:22.705Z,57.58
2019-03-17T09:05:22.589Z,57.17
2019-03-17T09:06:22.651Z,57.55
2019-03-17T09:07:22.616Z,56.13
2019-03-17T09:08:34.397Z,56.64
2019-03-17T09:09:23.548Z,55.73
2019-03-17T09:10:22.551Z,56.13
2019-03-17T09:11:22.528Z,56.84
2019-03-17T09:12:22.541Z,56.74
2019-03-17T09:13:22.519Z,56.10
2019-03-17T09:14:22.493Z,56.31
2019-03-17T09:15:22.493Z,55.88
2019-03-17T09:16:22.465Z,55.77
2019-03-17T09:17:22.486Z,56.15
2019-03-17T09:18:22.447Z,54.21
2019-03-17T09:19:22.502Z,53.65
2019-03-17T09:20:22.427Z,53.93
2019-03-17T09:21:22.414Z,54.36
2019-03-17T09:22:22.413Z,55.80
2019-03-17T09:23:22.398Z,56.16
2019-03-17T09:24:22.391Z,57.17
2019-03-17T09:25:22.424Z,56.16
2019-03-17T09:26:22.379Z,57.04
2019-03-17T09:27:22.372Z,55.80
2019-03-17T09:28:22.345Z,56.41
2019-03-17T09:29:22.332Z,56.41
2019-03-17T09:30:22.329Z,56.23
2019-03-17T09:31:22.321Z,57.02
2019-03-17T09:32:22.345Z,55.52
2019-03-17T09:33:22.282Z,52.56
2019-03-17T09:34:22.271Z,52.64
2019-03-17T09:35:22.263Z,52.59
2019-03-17T09:36:22.253Z,50.57
2019-03-17T09:37:22.254Z,50.59
2019-03-17T09:38:22.242Z,52.44
2019-03-17T09:39:22.222Z,53.17
2019-03-17T09:40:22.213Z,52.74
2019-03-17T09:41:22.212Z,53.25
2019-03-17T09:42:22.219Z,54.56
2019-03-17T09:43:22.180Z,53.17
2019-03-17T09:44:22.210Z,54.31
2019-03-17T09:45:22.154Z,55.47
2019-03-17T09:46:22.144Z,55.40
2019-03-17T09:47:22.136Z,55.37
2019-03-17T09:48:22.144Z,54.66
2019-03-17T09:49:22.108Z,55.68
2019-03-17T09:50:22.094Z,55.98
2019-03-17T09:51:22.086Z,55.17
2019-03-17T09:52:22.094Z,55.80
2019-03-17T09:53:22.098Z,55.47
2019-03-17T09:54:22.139Z,56.79
2019-03-17T09:55:22.150Z,55.85
2019-03-17T09:56:22.033Z,55.09
2019-03-17T09:57:22.019Z,56.00
2019-03-17T09:58:22.202Z,54.99
2019-03-17T09:59:22.028Z,55.40
2019-03-17T10:00:22.018Z,53.70
2019-03-17T10:01:21.975Z,54.71
2019-03-17T10:02:21.973Z,54.89
2019-03-17T10:03:22.018Z,55.22
2019-03-17T10:04:21.945Z,55.04
2019-03-17T10:05:21.978Z,54.74
2019-03-17T10:06:21.984Z,55.47
2019-03-17T10:07:21.914Z,55.47
2019-03-17T10:08:21.923Z,56.18
2019-03-17T10:09:21.930Z,56.38
2019-03-17T10:10:21.998Z,56.10
2019-03-17T10:11:21.922Z,56.10
2019-03-17T10:12:21.859Z,56.41
2019-03-17T10:13:21.925Z,57.07
2019-03-17T10:14:21.837Z,57.68
2019-03-17T10:15:21.829Z,57.10
2019-03-17T10:16:21.817Z,57.12
2019-03-17T10:17:21.807Z,57.53
2019-03-17T10:18:21.912Z,58.75
2019-03-17T10:19:21.800Z,57.23
2019-03-17T10:20:21.799Z,58.54
2019-03-17T10:21:21.761Z,58.65
2019-03-17T10:22:21.791Z,58.04
2019-03-17T10:23:21.741Z,59.36
2019-03-17T10:24:21.747Z,59.36
2019-03-17T10:25:21.723Z,59.48
2019-03-17T10:26:21.708Z,59.28
2019-03-17T10:27:21.693Z,59.69
2019-03-17T10:28:21.702Z,59.18
2019-03-17T10:29:21.689Z,59.21
2019-03-17T10:30:21.660Z,60.22
2019-03-17T10:31:21.652Z,60.33
2019-03-17T10:32:21.649Z,60.02
2019-03-17T10:33:21.636Z,60.53
2019-03-17T10:34:21.652Z,61.14
2019-03-17T10:35:21.617Z,60.74
2019-03-17T10:36:21.599Z,61.24
2019-03-17T10:37:21.646Z,60.76
2019-03-17T10:38:21.578Z,60.46
2019-03-17T10:39:21.589Z,61.07
2019-03-17T10:40:21.558Z,61.27
2019-03-17T10:41:21.566Z,61.98
2019-03-17T10:42:21.542Z,61.98
2019-03-17T10:43:21.517Z,61.68
2019-03-17T10:44:21.546Z,61.07
2019-03-17T10:45:21.591Z,60.83
2019-03-17T10:46:21.561Z,61.55
2019-03-17T10:47:21.475Z,60.63
2019-03-17T10:48:21.468Z,61.21
2019-03-17T10:49:21.510Z,60.50
2019-03-17T10:50:21.458Z,58.75
2019-03-17T10:51:21.431Z,58.75
2019-03-17T10:52:21.433Z,59.56
2019-03-17T10:53:21.425Z,59.26
2019-03-17T10:54:21.498Z,59.26
2019-03-17T10:55:21.498Z,59.46
2019-03-17T10:56:21.388Z,59.46
2019-03-17T10:57:21.383Z,59.33
2019-03-17T10:58:21.353Z,58.22
2019-03-17T10:59:21.484Z,58.42
2019-03-17T11:00:21.386Z,59.86
2019-03-17T11:01:21.325Z,59.33
2019-03-17T11:02:21.320Z,58.92
2019-03-17T11:03:21.480Z,58.72
2019-03-17T11:04:21.295Z,59.12
2019-03-17T11:05:21.302Z,59.43
2019-03-17T11:06:21.270Z,58.42
2019-03-17T11:07:21.382Z,58.62
2019-03-17T11:08:21.259Z,60.35
2019-03-17T11:09:25.515Z,59.63
2019-03-17T11:10:21.289Z,58.92
2019-03-17T11:11:21.218Z,59.23
2019-03-17T11:12:21.229Z,59.12
2019-03-17T11:13:21.230Z,59.91
2019-03-17T11:14:21.180Z,59.33
2019-03-17T11:15:21.194Z,59.50
2019-03-17T11:16:21.176Z,58.62
2019-03-17T11:17:21.148Z,58.90
2019-03-17T11:18:21.140Z,58.29
2019-03-17T11:19:21.262Z,58.39
2019-03-17T11:20:21.140Z,57.78
2019-03-17T11:21:21.126Z,58.56
2019-03-17T11:22:21.092Z,57.93
2019-03-17T11:23:21.086Z,57.02
2019-03-17T11:24:21.073Z,57.53
2019-03-17T11:25:21.071Z,56.92
2019-03-17T11:26:21.064Z,57.62
2019-03-17T11:27:21.160Z,58.03
2019-03-17T11:28:21.036Z,55.90
2019-03-17T11:29:21.016Z,56.10
2019-03-17T11:30:21.026Z,57.02
2019-03-17T11:31:21.048Z,57.35
2019-03-17T11:32:21.054Z,57.04
2019-03-17T11:33:20.980Z,57.93
2019-03-17T11:34:21.080Z,57.75
2019-03-17T11:37:10.976Z,57.15
2019-03-17T11:37:34.759Z,57.55
2019-03-17T11:38:34.756Z,57.35
2019-03-17T11:39:38.074Z,56.84
2019-03-17T11:40:34.828Z,57.96
2019-03-17T11:41:34.717Z,56.71
2019-03-17T11:42:34.687Z,56.95
2019-03-17T11:43:34.697Z,57.68
2019-03-17T11:44:34.697Z,57.78
2019-03-17T11:45:34.702Z,57.60
2019-03-17T11:46:34.689Z,58.29
2019-03-17T11:47:34.642Z,59.41
2019-03-17T11:48:34.633Z,58.09
2019-03-17T11:49:34.629Z,58.09
2019-03-17T11:50:34.669Z,57.88
2019-03-17T11:51:34.691Z,59.00
2019-03-17T11:52:34.607Z,58.18
2019-03-17T11:53:34.598Z,57.71
2019-03-17T11:54:34.709Z,57.30
2019-03-17T11:55:34.553Z,59.63
2019-03-17T11:56:34.547Z,58.11
2019-03-17T11:57:34.539Z,59.53
2019-03-17T11:58:34.526Z,58.65
2019-03-17T11:59:34.544Z,59.46
2019-03-17T12:00:34.523Z,58.75
2019-03-17T12:01:34.489Z,59.48
2019-03-17T12:02:34.491Z,60.20
2019-03-17T12:03:34.477Z,60.81
2019-03-17T12:04:34.457Z,62.97
2019-03-17T12:05:34.456Z,63.98
2019-03-17T12:06:34.431Z,64.32
2019-03-17T12:07:34.441Z,65.03
2019-03-17T12:08:34.412Z,63.43
2019-03-17T12:09:34.401Z,63.43
2019-03-17T12:10:34.407Z,62.41
2019-03-17T12:11:34.377Z,62.11
2019-03-17T12:12:34.404Z,62.62
2019-03-17T12:13:34.366Z,62.93
2019-03-17T12:14:34.341Z,62.93
2019-03-17T12:15:34.337Z,62.93
2019-03-17T12:16:34.327Z,63.23
2019-03-17T12:17:34.340Z,62.62
2019-03-17T12:18:34.305Z,62.82
2019-03-17T12:19:34.289Z,62.82
2019-03-17T12:20:34.284Z,63.00
2019-03-17T12:21:34.322Z,62.29
2019-03-17T12:22:34.282Z,61.27
2019-03-17T12:23:34.268Z,62.59
2019-03-17T12:24:34.228Z,62.49
2019-03-17T12:25:34.236Z,62.39
2019-03-17T12:26:34.208Z,61.78
2019-03-17T12:27:34.232Z,61.37
2019-03-17T12:28:34.205Z,61.75
2019-03-17T12:29:34.182Z,61.65
2019-03-17T12:30:34.201Z,61.37
2019-03-17T12:31:34.232Z,61.68
2019-03-17T12:32:34.142Z,61.98
2019-03-17T12:33:34.266Z,61.57
2019-03-17T12:34:34.118Z,61.47
2019-03-17T12:35:34.110Z,61.98
2019-03-17T12:36:34.196Z,61.47
2019-03-17T12:37:34.091Z,61.60
2019-03-17T12:38:34.094Z,62.70
2019-03-17T12:39:34.066Z,61.91
2019-03-17T12:40:34.059Z,62.29
2019-03-17T12:41:34.096Z,62.32
2019-03-17T12:42:34.046Z,62.11
2019-03-17T12:43:34.146Z,62.32
2019-03-17T12:44:34.010Z,62.62
2019-03-17T12:45:34.005Z,62.41
2019-03-17T12:46:33.992Z,63.26
2019-03-17T12:47:33.981Z,62.85
2019-03-17T12:48:34.010Z,63.57
2019-03-17T12:49:34.022Z,62.75
2019-03-17T12:50:33.943Z,63.29
2019-03-17T12:51:33.943Z,64.92
2019-03-17T12:52:33.930Z,64.31
2019-03-17T12:53:33.942Z,65.12